Terminal Aerodrome Forecast
Issued by NWS Jackson, MS

Home | Current Version | Previous Version | Text Only | Print | Product List | Glossary On
Versions: 1 2 3 4 5 6 7 8 9 10 11 12 13 14 15 16 17 18 19
687
FTUS44 KMEG 271735
TAFTUP
TAF
KTUP 271735Z 2718/2818 19010G18KT P6SM SCT016 BKN035 BKN090
      TEMPO 2718/2719 BKN007
     FM271900 21015G25KT P6SM VCTS BKN035CB OVC090
      TEMPO 2720/2722 3SM -TSRA BKN025CB
     FM272200 24010G20KT P6SM VCTS BKN035CB OVC090
     FM280100 24010KT 5SM -TSRA BR BKN025CB OVC050
      TEMPO 2801/2803 1SM +TSRA BR OVC008CB
     FM280400 30010KT 6SM BR VCSH OVC008
     FM281200 30003KT P6SM OVC007=

USA.gov is the U.S. government's official web portal to all federal, state and local government web resources and services.